Time;durP1;ratioP1;P1;durP2;ratioP2;P2;SDS_P1;SDS_P2;PMS_P1;PMS_P2;Temp;Humidity;BMP_temperature;BMP_pressure;BME280_temperature;BME280_humidity;BME280_pressure;Samples;Min_cycle;Max_cycle;Signal;HPM_P1;HPM_P2
2022/07/10 00:01:05;;;;;;;4.13;1.30;;;14.20;99.90;;;;;;9184688;19;20014;-75
2022/07/10 00:04:09;;;;;;;5.95;1.65;;;14.20;99.90;;;;;;9185062;19;20474;-75
2022/07/10 00:07:13;;;;;;;10.07;1.80;;;14.70;99.90;;;;;;9184901;19;20081;-75
2022/07/10 00:10:17;;;;;;;7.35;1.70;;;14.20;99.90;;;;;;9184972;19;20054;-75
2022/07/10 00:13:21;;;;;;;4.63;1.58;;;14.50;99.90;;;;;;9184457;19;20006;-74
2022/07/10 00:16:27;;;;;;;8.60;1.77;;;14.30;99.90;;;;;;9181394;19;20052;-75
2022/07/10 00:19:32;;;;;;;8.77;1.85;;;13.90;99.90;;;;;;9183339;19;20021;-75
2022/07/10 00:22:37;;;;;;;4.15;1.55;;;14.30;99.90;;;;;;9182759;19;20034;-75
2022/07/10 00:25:41;;;;;;;6.47;1.48;;;14.00;99.90;;;;;;9183144;19;20009;-75
2022/07/10 00:28:45;;;;;;;10.95;1.77;;;14.20;99.90;;;;;;9184198;19;20024;-75
2022/07/10 00:31:51;;;;;;;8.40;1.40;;;14.00;99.90;;;;;;9188259;19;20014;-74
2022/07/10 00:34:55;;;;;;;7.50;1.58;;;14.20;99.90;;;;;;9182826;19;20014;-75
2022/07/10 00:37:59;;;;;;;7.93;1.40;;;14.00;99.90;;;;;;9182835;19;20470;-75
2022/07/10 00:41:03;;;;;;;7.03;1.30;;;13.90;99.90;;;;;;9182677;19;20544;-76
2022/07/10 00:44:07;;;;;;;8.30;1.70;;;13.80;99.90;;;;;;9182660;19;20011;-75
2022/07/10 00:47:17;;;;;;;6.45;1.40;;;13.90;99.90;;;;;;9182295;19;20047;-75
2022/07/10 00:50:21;;;;;;;6.80;1.50;;;14.10;99.90;;;;;;9182579;19;20591;-75
2022/07/10 00:53:25;;;;;;;4.45;1.45;;;13.90;99.90;;;;;;9182413;19;20017;-75
2022/07/10 00:56:30;;;;;;;6.65;1.50;;;13.80;99.90;;;;;;9180544;19;20014;-75
2022/07/10 00:59:34;;;;;;;6.28;1.40;;;13.80;99.90;;;;;;9182276;19;20010;-75
2022/07/10 01:02:45;;;;;;;8.23;2.03;;;13.80;99.90;;;;;;9181947;19;20011;-75
2022/07/10 01:05:49;;;;;;;15.00;1.98;;;14.10;99.90;;;;;;9181840;19;20025;-75
2022/07/10 01:08:53;;;;;;;7.18;1.73;;;13.50;99.90;;;;;;9182220;19;20019;-75
2022/07/10 01:11:58;;;;;;;7.22;1.58;;;13.80;99.90;;;;;;9181607;19;20014;-75
2022/07/10 01:15:03;;;;;;;7.22;1.50;;;13.80;99.90;;;;;;9181468;19;20002;-75
2022/07/10 01:18:09;;;;;;;5.05;1.67;;;13.90;99.90;;;;;;9181046;19;20021;-75
2022/07/10 01:21:29;;;;;;;6.35;1.10;;;13.80;99.90;;;;;;9181436;19;20093;-76
2022/07/10 01:24:34;;;;;;;5.32;1.52;;;13.80;99.90;;;;;;9181173;19;20022;-74
2022/07/10 01:27:38;;;;;;;6.35;1.27;;;14.10;99.90;;;;;;9178980;19;20013;-75
2022/07/10 01:30:42;;;;;;;5.65;1.33;;;13.60;99.90;;;;;;9183415;19;20014;-75
2022/07/10 01:33:46;;;;;;;7.45;1.50;;;13.60;99.90;;;;;;9178512;19;20017;-75
2022/07/10 01:36:52;;;;;;;6.30;1.35;;;13.60;99.90;;;;;;9178818;19;20014;-75
2022/07/10 01:39:56;;;;;;;6.10;1.55;;;13.60;99.90;;;;;;9179406;19;20011;-75
2022/07/10 01:43:00;;;;;;;4.53;1.20;;;13.50;99.90;;;;;;9180694;19;20011;-75
2022/07/10 01:46:04;;;;;;;3.80;1.17;;;13.50;99.90;;;;;;9180393;19;20012;-75
2022/07/10 01:49:08;;;;;;;9.25;1.42;;;13.50;99.90;;;;;;9180216;19;20014;-74
2022/07/10 01:52:14;;;;;;;4.72;1.10;;;13.60;99.90;;;;;;9178638;19;20490;-75
2022/07/10 01:55:18;;;;;;;5.50;1.10;;;13.60;99.90;;;;;;9179147;19;20483;-75
2022/07/10 01:58:22;;;;;;;6.07;1.83;;;13.40;99.90;;;;;;9180588;19;20018;-76
2022/07/10 02:01:26;;;;;;;4.45;1.42;;;13.60;99.90;;;;;;9179671;19;20043;-75
2022/07/10 02:07:49;;;;;;;8.00;1.55;;;13.60;99.90;;;;;;9179780;19;20010;-75
2022/07/10 02:10:53;;;;;;;6.15;1.33;;;13.30;99.90;;;;;;9179201;19;20007;-75
2022/07/10 02:13:57;;;;;;;5.95;1.38;;;;;;;;;;9179818;19;20512;-76
2022/07/10 02:17:01;;;;;;;5.35;1.33;;;13.70;99.90;;;;;;9177255;19;20011;-75
2022/07/10 02:20:06;;;;;;;6.22;1.40;;;13.70;99.90;;;;;;9179169;19;20011;-75
2022/07/10 02:23:12;;;;;;;10.52;1.70;;;13.80;99.90;;;;;;9180328;19;20047;-75
2022/07/10 02:26:17;;;;;;;6.32;1.50;;;13.50;99.90;;;;;;9178170;19;20035;-76
2022/07/10 02:29:23;;;;;;;7.00;1.60;;;13.50;99.90;;;;;;9179021;19;20018;-76
2022/07/10 02:32:26;;;;;;;6.93;1.40;;;13.40;99.90;;;;;;9179047;19;20065;-76
2022/07/10 02:35:30;;;;;;;4.40;1.30;;;13.30;99.90;;;;;;9178154;19;20018;-75
2022/07/10 02:38:37;;;;;;;4.78;1.45;;;13.40;99.90;;;;;;9178578;19;20014;-75
2022/07/10 02:41:41;;;;;;;4.05;1.23;;;13.40;99.90;;;;;;9177992;19;20011;-75
2022/07/10 02:44:45;;;;;;;12.45;1.65;;;13.30;99.90;;;;;;9181447;19;20040;-75
2022/07/10 02:47:49;;;;;;;7.82;1.50;;;13.50;99.90;;;;;;9187148;19;20018;-75
2022/07/10 02:50:53;;;;;;;5.65;1.67;;;13.40;99.90;;;;;;9185959;19;20014;-74
2022/07/10 02:53:59;;;;;;;7.50;1.55;;;13.50;99.90;;;;;;9187470;19;20006;-75
2022/07/10 02:57:03;;;;;;;8.32;1.92;;;13.50;99.90;;;;;;9184238;19;20014;-75
2022/07/10 03:00:09;;;;;;;4.72;1.40;;;13.50;99.90;;;;;;9187255;19;20021;-75
2022/07/10 03:03:13;;;;;;;6.07;1.60;;;13.60;99.90;;;;;;9187602;19;20038;-75
2022/07/10 03:06:16;;;;;;;5.93;1.52;;;13.50;99.90;;;;;;9187165;19;20070;-76
2022/07/10 03:09:43;;;;;;;10.18;2.17;;;13.60;99.90;;;;;;9188159;19;20010;-75
2022/07/10 03:12:47;;;;;;;7.63;1.70;;;13.80;99.90;;;;;;9188927;19;20073;-75
2022/07/10 03:15:51;;;;;;;5.97;1.73;;;13.60;99.90;;;;;;9185304;19;20014;-75
2022/07/10 03:18:54;;;;;;;8.02;1.55;;;13.60;99.90;;;;;;9186148;19;20038;-75
2022/07/10 03:21:58;;;;;;;9.55;1.70;;;13.50;99.90;;;;;;9186305;19;20085;-76
2022/07/10 03:25:06;;;;;;;7.70;1.55;;;13.60;99.90;;;;;;9186089;19;20387;-75
2022/07/10 03:28:10;;;;;;;7.25;1.38;;;13.60;99.90;;;;;;9182585;19;20023;-75
2022/07/10 03:31:14;;;;;;;10.60;2.20;;;13.50;99.90;;;;;;9189933;19;20362;-75
2022/07/10 03:34:18;;;;;;;4.78;1.40;;;13.50;99.90;;;;;;9185933;19;20531;-75
2022/07/10 03:37:22;;;;;;;6.65;1.40;;;13.50;99.90;;;;;;9183226;19;20014;-75
2022/07/10 03:40:29;;;;;;;6.72;1.70;;;13.40;99.90;;;;;;9186199;19;20014;-75
2022/07/10 03:43:33;;;;;;;7.30;1.70;;;13.50;99.90;;;;;;9186405;19;20007;-75
2022/07/10 03:46:37;;;;;;;7.40;1.42;;;13.40;99.90;;;;;;9185451;19;20033;-75
2022/07/10 03:49:41;;;;;;;4.05;1.25;;;13.50;99.90;;;;;;9185195;19;20047;-75
2022/07/10 03:52:46;;;;;;;8.65;1.63;;;13.60;99.90;;;;;;9182915;19;20301;-75
2022/07/10 03:55:53;;;;;;;5.50;1.42;;;13.50;99.90;;;;;;9182297;19;20014;-75
2022/07/10 03:58:55;;;;;;;8.45;1.80;;;13.50;99.90;;;;;;9184993;19;20017;-75
2022/07/10 04:01:59;;;;;;;5.43;1.38;;;13.40;99.90;;;;;;9184710;19;20030;-75
2022/07/10 04:05:02;;;;;;;5.47;1.58;;;13.40;99.90;;;;;;9184828;19;20043;-75
2022/07/10 04:08:08;;;;;;;7.10;1.63;;;13.50;99.90;;;;;;9184431;19;20026;-75
2022/07/10 04:11:15;;;;;;;6.55;1.40;;;13.50;99.90;;;;;;9184777;19;20021;-75
2022/07/10 04:14:20;;;;;;;7.30;1.40;;;13.40;99.90;;;;;;9184148;19;20362;-75
2022/07/10 04:17:25;;;;;;;9.00;1.77;;;13.50;99.90;;;;;;9181210;19;20467;-75
2022/07/10 04:20:29;;;;;;;8.77;1.90;;;13.40;99.90;;;;;;9183675;19;20494;-75
2022/07/10 04:23:34;;;;;;;8.23;1.70;;;13.30;99.90;;;;;;9183863;19;20021;-75
2022/07/10 04:26:41;;;;;;;9.45;1.65;;;13.40;99.90;;;;;;9182574;19;20016;-75
2022/07/10 04:29:45;;;;;;;5.00;1.40;;;13.40;99.90;;;;;;9184969;19;20015;-75
2022/07/10 04:32:49;;;;;;;6.88;1.45;;;13.40;99.90;;;;;;9183543;19;20024;-75
2022/07/10 04:35:53;;;;;;;10.43;2.13;;;13.30;99.90;;;;;;9182804;19;20010;-75
2022/07/10 04:38:57;;;;;;;14.25;2.22;;;13.50;99.90;;;;;;9182982;19;20017;-75
2022/07/10 04:42:03;;;;;;;11.13;2.03;;;13.50;99.90;;;;;;9183078;19;20010;-75
2022/07/10 04:45:08;;;;;;;5.68;1.83;;;13.60;99.90;;;;;;9184397;19;20014;-75
2022/07/10 04:48:12;;;;;;;6.75;1.58;;;;;;;;;;9182578;19;20010;-75
2022/07/10 04:51:17;;;;;;;9.82;1.77;;;13.60;99.90;;;;;;9181431;19;20015;-76
2022/07/10 04:54:21;;;;;;;7.93;1.40;;;13.70;99.90;;;;;;9182979;19;20039;-75
2022/07/10 04:57:27;;;;;;;7.05;1.80;;;13.80;99.90;;;;;;9180410;19;20102;-75
2022/07/10 05:00:31;;;;;;;8.07;1.52;;;13.60;99.90;;;;;;9182154;19;20084;-75
2022/07/10 05:03:35;;;;;;;5.63;1.40;;;13.90;99.90;;;;;;9182017;19;20018;-75
2022/07/10 05:06:39;;;;;;;6.75;1.50;;;13.90;99.90;;;;;;9182388;19;20018;-75
2022/07/10 05:09:43;;;;;;;10.85;2.05;;;13.80;99.90;;;;;;9182419;19;20010;-75
2022/07/10 05:12:49;;;;;;;8.23;1.92;;;13.90;99.90;;;;;;9181966;19;20039;-75
2022/07/10 05:15:53;;;;;;;8.32;1.80;;;13.90;99.90;;;;;;9181258;19;20534;-75
2022/07/10 05:18:57;;;;;;;8.55;1.83;;;13.90;99.90;;;;;;9181716;19;20011;-75
2022/07/10 05:22:01;;;;;;;9.13;1.63;;;13.80;99.90;;;;;;9181678;19;20508;-75
2022/07/10 05:25:05;;;;;;;7.00;1.70;;;13.90;99.90;;;;;;9181817;19;20011;-74
2022/07/10 05:28:14;;;;;;;7.70;1.83;;;13.90;99.90;;;;;;9178640;19;20014;-74
2022/07/10 05:31:18;;;;;;;8.43;1.55;;;13.80;99.90;;;;;;9185339;19;20010;-75
2022/07/10 05:34:22;;;;;;;8.20;1.58;;;13.60;99.90;;;;;;9182775;19;20047;-75
2022/07/10 05:37:26;;;;;;;8.95;2.15;;;13.90;99.90;;;;;;9180617;19;20486;-75
2022/07/10 05:40:30;;;;;;;9.73;1.60;;;14.00;99.90;;;;;;9182069;19;20487;-75
2022/07/10 05:43:37;;;;;;;8.75;2.00;;;14.30;99.90;;;;;;9185950;19;20015;-75
2022/07/10 05:46:40;;;;;;;10.43;2.40;;;13.70;99.90;;;;;;9189216;19;20014;-75
2022/07/10 05:49:44;;;;;;;11.85;1.98;;;14.10;99.90;;;;;;9182906;19;20017;-75
2022/07/10 05:52:48;;;;;;;6.50;1.83;;;14.10;99.90;;;;;;9178801;19;20015;-75
2022/07/10 05:55:52;;;;;;;10.80;1.58;;;14.20;99.90;;;;;;9181346;19;20015;-75
2022/07/10 05:58:59;;;;;;;8.18;1.80;;;14.00;99.90;;;;;;9179972;19;20047;-75
2022/07/10 06:02:03;;;;;;;8.25;2.15;;;14.10;99.90;;;;;;9180446;19;20487;-75
2022/07/10 06:05:08;;;;;;;12.77;2.22;;;14.20;99.90;;;;;;9180423;19;20018;-75
2022/07/10 06:08:13;;;;;;;7.13;1.95;;;13.70;99.90;;;;;;9179568;19;20531;-76
2022/07/10 06:11:17;;;;;;;9.18;2.10;;;14.00;99.90;;;;;;9179584;19;20491;-75
2022/07/10 06:14:24;;;;;;;8.82;1.95;;;13.80;99.90;;;;;;9180968;19;20010;-75
2022/07/10 06:17:28;;;;;;;12.70;1.92;;;13.90;99.90;;;;;;9177599;19;20017;-75
2022/07/10 06:20:32;;;;;;;8.68;1.73;;;13.90;99.90;;;;;;9178831;19;20014;-75
2022/07/10 06:23:36;;;;;;;6.40;1.80;;;13.50;99.90;;;;;;9179342;19;20036;-75
2022/07/10 06:26:40;;;;;;;9.23;1.98;;;14.20;99.90;;;;;;9177893;19;20087;-75
2022/07/10 06:29:46;;;;;;;12.20;2.33;;;14.10;99.90;;;;;;9179887;19;20026;-75
2022/07/10 06:32:50;;;;;;;8.05;1.50;;;14.00;99.90;;;;;;9178684;19;20047;-75
2022/07/10 06:35:55;;;;;;;12.98;2.53;;;14.40;99.90;;;;;;9178419;19;20070;-75
2022/07/10 06:38:59;;;;;;;4.28;1.58;;;14.00;99.90;;;;;;9178556;19;20011;-75
2022/07/10 06:42:03;;;;;;;8.32;1.95;;;13.90;99.90;;;;;;9178212;19;20022;-75
2022/07/10 06:45:10;;;;;;;4.68;1.40;;;13.90;99.90;;;;;;9179344;19;20432;-75
2022/07/10 06:48:14;;;;;;;7.35;2.00;;;14.00;99.90;;;;;;9178024;19;20082;-75
2022/07/10 06:51:18;;;;;;;9.15;1.75;;;14.00;99.90;;;;;;9177184;19;20344;-75
2022/07/10 06:54:22;;;;;;;7.53;1.77;;;14.10;99.90;;;;;;9178449;19;20048;-75
2022/07/10 06:57:26;;;;;;;8.88;1.70;;;13.90;99.90;;;;;;9176556;19;20021;-75
2022/07/10 07:00:32;;;;;;;8.55;1.58;;;14.80;99.90;;;;;;9177717;19;20010;-75
2022/07/10 07:03:37;;;;;;;7.75;1.92;;;14.00;99.90;;;;;;9177779;19;20498;-75
2022/07/10 07:06:41;;;;;;;6.35;2.03;;;14.00;99.90;;;;;;9178288;19;20015;-75
2022/07/10 07:09:49;;;;;;;10.05;1.80;;;14.10;99.90;;;;;;9177712;19;20014;-76
2022/07/10 07:12:53;;;;;;;8.38;1.70;;;14.30;99.90;;;;;;9177762;19;20018;-75
2022/07/10 07:16:00;;;;;;;9.48;2.03;;;14.50;99.90;;;;;;9178014;19;20019;-76
2022/07/10 07:19:04;;;;;;;7.95;1.60;;;15.20;99.90;;;;;;9176973;19;20014;-75
2022/07/10 07:25:24;;;;;;;7.07;1.50;;;14.40;99.90;;;;;;9176827;19;20011;-75
2022/07/10 07:28:28;;;;;;;5.70;1.40;;;14.50;99.90;;;;;;9177251;19;20036;-76
2022/07/10 07:31:35;;;;;;;5.80;1.58;;;14.30;99.90;;;;;;9184336;19;20022;-76
2022/07/10 07:34:39;;;;;;;3.65;1.10;;;14.60;99.90;;;;;;9186365;19;20014;-76
2022/07/10 07:37:45;;;;;;;7.35;1.25;;;14.60;99.90;;;;;;9183878;19;20407;-75
2022/07/10 07:40:49;;;;;;;3.85;1.00;;;14.50;99.90;;;;;;9185752;19;20003;-75
2022/07/10 07:43:53;;;;;;;4.35;1.25;;;14.60;99.90;;;;;;9185576;19;20015;-76
2022/07/10 07:46:59;;;;;;;3.53;1.00;;;14.60;99.90;;;;;;9185164;19;20380;-75
2022/07/10 07:50:05;;;;;;;5.05;1.50;;;14.60;99.90;;;;;;9185273;19;20010;-75
2022/07/10 07:53:09;;;;;;;4.43;1.20;;;14.70;99.90;;;;;;9182318;19;20025;-76
2022/07/10 07:56:13;;;;;;;6.25;1.20;;;14.70;99.90;;;;;;9184867;19;20504;-76
2022/07/10 07:59:17;;;;;;;5.32;0.90;;;14.80;99.90;;;;;;9185370;19;20459;-75
2022/07/10 08:02:24;;;;;;;6.03;1.00;;;14.90;99.90;;;;;;9184831;19;20372;-75
2022/07/10 08:05:28;;;;;;;5.00;1.15;;;14.90;99.90;;;;;;9185242;19;20026;-76
2022/07/10 08:08:32;;;;;;;6.53;1.60;;;14.90;99.90;;;;;;9185134;19;20032;-76
2022/07/10 08:11:36;;;;;;;5.70;1.67;;;15.00;99.90;;;;;;9185059;19;20015;-75
2022/07/10 08:14:41;;;;;;;3.78;0.98;;;15.30;99.90;;;;;;9184396;19;20038;-75
2022/07/10 08:17:49;;;;;;;5.85;1.25;;;15.00;99.90;;;;;;9183312;19;20116;-76
2022/07/10 08:20:53;;;;;;;3.38;1.10;;;15.10;99.90;;;;;;9184273;19;20078;-76
2022/07/10 08:23:57;;;;;;;3.45;1.02;;;15.20;99.90;;;;;;9184587;19;20006;-76
2022/07/10 08:27:01;;;;;;;7.35;1.40;;;15.20;99.90;;;;;;9182593;19;20120;-75
2022/07/10 08:30:06;;;;;;;6.40;1.20;;;15.30;99.90;;;;;;9187127;19;20007;-76
2022/07/10 08:33:12;;;;;;;4.53;1.17;;;15.40;99.90;;;;;;9183717;19;20007;-76
2022/07/10 08:36:17;;;;;;;3.95;1.10;;;14.90;99.90;;;;;;9183567;19;20022;-75
2022/07/10 08:39:21;;;;;;;6.43;1.17;;;15.10;99.90;;;;;;9183040;19;20472;-76
2022/07/10 08:42:26;;;;;;;5.47;1.27;;;15.00;99.90;;;;;;9182111;19;20009;-75
2022/07/10 08:45:33;;;;;;;6.53;1.38;;;16.10;99.90;;;;;;9181641;19;20010;-75
2022/07/10 08:48:41;;;;;;;3.63;1.15;;;15.10;99.90;;;;;;9182683;19;20025;-75
2022/07/10 08:51:55;;;;;;;5.03;1.20;;;15.00;99.90;;;;;;9181597;19;20018;-75
2022/07/10 08:54:59;;;;;;;4.25;1.20;;;15.20;99.90;;;;;;9182889;19;20405;-75
2022/07/10 08:58:05;;;;;;;3.63;1.15;;;15.20;99.90;;;;;;9181030;19;20010;-76
2022/07/10 09:01:09;;;;;;;6.28;1.30;;;15.10;99.90;;;;;;9182520;19;20014;-76
2022/07/10 09:04:23;;;;;;;6.05;1.10;;;15.10;99.90;;;;;;9182822;19;20388;-76
2022/07/10 09:07:27;;;;;;;2.70;1.15;;;15.10;99.90;;;;;;9183724;19;20010;-75
2022/07/10 09:10:32;;;;;;;6.63;1.45;;;14.80;99.90;;;;;;9182761;19;20022;-75
2022/07/10 09:13:52;;;;;;;4.20;1.15;;;14.70;99.90;;;;;;9185181;19;20471;-76
2022/07/10 09:16:57;;;;;;;5.22;1.10;;;14.70;99.90;;;;;;9187002;19;20022;-75
2022/07/10 09:20:04;;;;;;;4.25;1.10;;;14.60;99.90;;;;;;9183824;19;20007;-76
2022/07/10 09:23:18;;;;;;;4.30;1.30;;;14.50;99.90;;;;;;9181871;19;20011;-76
2022/07/10 09:26:22;;;;;;;4.97;1.25;;;14.80;99.90;;;;;;9180838;19;20018;-76
2022/07/10 09:29:26;;;;;;;4.43;1.30;;;14.80;99.90;;;;;;9182504;19;20433;-76
2022/07/10 09:32:30;;;;;;;6.15;1.30;;;14.80;99.90;;;;;;9180979;19;20082;-76
2022/07/10 09:39:00;;;;;;;6.30;1.35;;;14.80;99.90;;;;;;9178887;19;20006;-76
2022/07/10 09:42:04;;;;;;;5.47;1.25;;;15.10;99.90;;;;;;9180344;19;20044;-76
2022/07/10 09:45:21;;;;;;;7.35;1.25;;;15.10;99.90;;;;;;9180732;19;20043;-76
2022/07/10 09:48:26;;;;;;;3.33;0.98;;;14.90;99.90;;;;;;9180236;19;20486;-77
2022/07/10 09:51:36;;;;;;;4.45;1.25;;;15.20;99.90;;;;;;9179086;19;20066;-76
2022/07/10 09:54:40;;;;;;;4.20;1.33;;;15.20;99.90;;;;;;9178663;19;20014;-76
2022/07/10 09:57:46;;;;;;;3.20;1.15;;;15.20;99.90;;;;;;9179165;19;20014;-76
2022/07/10 10:00:51;;;;;;;5.28;1.33;;;15.10;99.90;;;;;;9180350;19;20077;-76
2022/07/10 10:03:56;;;;;;;5.38;1.17;;;15.30;99.90;;;;;;9180001;19;20014;-77
2022/07/10 10:07:04;;;;;;;5.05;1.30;;;15.20;99.90;;;;;;9179546;19;20047;-77
2022/07/10 10:10:12;;;;;;;4.25;1.10;;;15.10;99.90;;;;;;9179180;19;20502;-76
2022/07/10 10:13:20;;;;;;;3.75;1.10;;;14.70;99.90;;;;;;9179217;19;20020;-77
2022/07/10 10:16:25;;;;;;;3.63;1.23;;;15.00;99.90;;;;;;9178784;19;20666;-77
2022/07/10 10:22:51;;;;;;;3.33;1.40;;;14.70;99.90;;;;;;9179507;19;20006;-76
2022/07/10 10:25:57;;;;;;;4.90;1.20;;;14.70;99.90;;;;;;9178153;19;20352;-76
2022/07/10 10:29:03;;;;;;;6.95;2.10;;;14.80;99.90;;;;;;9180050;19;20021;-76
2022/07/10 10:32:09;;;;;;;3.08;1.17;;;14.70;99.90;;;;;;9178584;19;20103;-76
2022/07/10 10:35:15;;;;;;;5.40;1.40;;;15.00;99.90;;;;;;9178543;19;20091;-76
2022/07/10 10:38:22;;;;;;;5.13;1.40;;;14.90;99.90;;;;;;9177496;19;20010;-76
2022/07/10 10:41:27;;;;;;;6.35;1.50;;;14.80;99.90;;;;;;9178521;19;20351;-76
2022/07/10 10:44:35;;;;;;;3.35;1.50;;;15.00;99.90;;;;;;9177946;19;20084;-76
2022/07/10 10:47:59;;;;;;;4.57;1.38;;;15.20;99.90;;;;;;9178065;19;20097;-76
2022/07/10 10:51:03;;;;;;;5.25;1.15;;;15.10;99.90;;;;;;9177461;19;20015;-76
2022/07/10 10:54:10;;;;;;;4.22;1.20;;;15.40;99.90;;;;;;9178521;19;20014;-76
2022/07/10 10:57:18;;;;;;;2.55;0.80;;;15.30;99.90;;;;;;9177664;19;20321;-76
2022/07/10 11:00:41;;;;;;;2.60;1.30;;;15.40;99.90;;;;;;9175273;19;20422;-77
2022/07/10 11:04:17;;;;;;;3.08;0.93;;;15.30;99.90;;;;;;9177389;19;20090;-76
2022/07/10 11:08:00;;;;;;;3.22;1.08;;;15.40;99.90;;;;;;9186458;19;20007;-76
2022/07/10 11:11:44;;;;;;;3.40;0.80;;;15.40;99.90;;;;;;9186130;19;20011;-76
2022/07/10 11:14:50;;;;;;;4.75;1.13;;;15.50;99.90;;;;;;9186930;19;20043;-76
2022/07/10 11:17:55;;;;;;;1.97;1.00;;;15.60;99.90;;;;;;9184989;19;20471;-76
2022/07/10 11:20:59;;;;;;;4.50;2.30;;;15.70;99.90;;;;;;9186248;19;20486;-76
2022/07/10 11:24:12;;;;;;;3.95;1.85;;;15.50;99.90;;;;;;9186042;19;20011;-75
2022/07/10 11:27:37;;;;;;;2.17;1.30;;;15.70;99.90;;;;;;9183753;19;20399;-75
2022/07/10 11:30:52;;;;;;;2.38;1.10;;;15.70;99.90;;;;;;9190802;19;20082;-76
2022/07/10 11:33:59;;;;;;;5.68;1.40;;;15.70;99.90;;;;;;9186031;19;20014;-76
2022/07/10 11:37:03;;;;;;;3.75;1.20;;;15.60;99.90;;;;;;9185908;19;20018;-76
2022/07/10 11:40:14;;;;;;;2.67;1.67;;;15.90;99.90;;;;;;9182803;19;20015;-76
2022/07/10 11:43:23;;;;;;;1.95;1.10;;;15.60;99.90;;;;;;9183749;19;20018;-76
2022/07/10 11:46:28;;;;;;;1.90;1.13;;;15.40;99.90;;;;;;9185163;19;20010;-76
2022/07/10 11:49:34;;;;;;;3.17;1.15;;;15.50;99.90;;;;;;9184754;19;20493;-75
2022/07/10 11:52:39;;;;;;;2.10;1.23;;;15.30;99.90;;;;;;9182182;19;20021;-76
2022/07/10 11:55:43;;;;;;;1.73;0.82;;;15.20;99.90;;;;;;9185023;19;20371;-76
2022/07/10 11:58:56;;;;;;;2.80;1.20;;;15.10;99.90;;;;;;9183214;19;20018;-76
2022/07/10 12:02:00;;;;;;;2.28;1.10;;;15.10;99.90;;;;;;9184771;19;20006;-75
2022/07/10 12:05:07;;;;;;;3.20;1.27;;;15.00;99.90;;;;;;9184547;19;20074;-76
2022/07/10 12:08:12;;;;;;;;;;;14.80;99.90;;;;;;9187223;19;20021;-75
2022/07/10 12:11:17;;;;;;;2.00;1.10;;;15.10;99.90;;;;;;9184565;19;19915;-75
2022/07/10 12:14:24;;;;;;;6.25;1.83;;;15.20;99.90;;;;;;9183816;19;20383;-75
2022/07/10 12:17:28;;;;;;;3.15;1.25;;;15.20;99.90;;;;;;9181859;19;20039;-76
2022/07/10 12:20:33;;;;;;;5.00;1.65;;;15.20;99.90;;;;;;9184436;19;20138;-76
2022/07/10 12:23:40;;;;;;;4.18;1.60;;;15.10;99.90;;;;;;9183886;19;20036;-76
2022/07/10 12:26:46;;;;;;;4.38;1.58;;;14.90;99.90;;;;;;9182771;19;20018;-76
2022/07/10 12:30:02;;;;;;;2.67;1.45;;;15.20;99.90;;;;;;9187436;19;20082;-76
2022/07/10 12:33:15;;;;;;;3.47;1.30;;;15.20;99.90;;;;;;9186436;19;20011;-76
2022/07/10 12:36:20;;;;;;;7.40;1.60;;;15.30;99.90;;;;;;9186422;19;20054;-75
2022/07/10 12:39:26;;;;;;;2.80;1.50;;;15.40;99.90;;;;;;9182708;19;20011;-76
2022/07/10 12:42:31;;;;;;;4.30;1.43;;;15.30;99.90;;;;;;9192136;19;20019;-76
2022/07/10 12:45:39;;;;;;;7.50;2.90;;;15.30;99.90;;;;;;9192275;19;20014;-75
2022/07/10 12:48:44;;;;;;;8.18;2.55;;;15.60;99.90;;;;;;9183580;19;20408;-75
2022/07/10 12:51:52;;;;;;;6.53;2.00;;;15.60;99.90;;;;;;9180661;19;20014;-75
2022/07/10 12:55:13;;;;;;;3.40;1.60;;;15.70;99.90;;;;;;9183022;19;20006;-76
2022/07/10 12:58:17;;;;;;;6.97;2.47;;;15.60;99.90;;;;;;9180676;19;20074;-76
2022/07/10 13:01:24;;;;;;;5.03;2.58;;;15.70;99.90;;;;;;9182532;19;20021;-76
2022/07/10 13:04:30;;;;;;;8.27;2.40;;;15.40;99.90;;;;;;9182004;19;20037;-76
2022/07/10 13:07:34;;;;;;;4.18;1.95;;;15.50;99.90;;;;;;9182483;19;20510;-76
2022/07/10 13:10:39;;;;;;;4.85;2.40;;;15.60;99.90;;;;;;9181600;19;20447;-76
2022/07/10 13:13:43;;;;;;;2.35;1.45;;;15.40;99.90;;;;;;9181635;19;20381;-76
2022/07/10 13:16:50;;;;;;;3.45;1.83;;;16.10;99.90;;;;;;9181789;19;20066;-76
2022/07/10 13:19:54;;;;;;;;;;;15.80;99.90;;;;;;9180065;19;20133;-76
2022/07/10 13:22:58;;;;;;;5.38;1.98;;;15.80;99.90;;;;;;9181386;19;19947;-76
2022/07/10 13:26:03;;;;;;;3.65;1.80;;;16.00;99.90;;;;;;9181023;19;20018;-76
2022/07/10 13:29:07;;;;;;;3.53;1.77;;;16.00;99.90;;;;;;9181036;19;20034;-76
2022/07/10 13:32:14;;;;;;;3.67;1.80;;;15.70;99.90;;;;;;9182534;19;20039;-76
2022/07/10 13:35:18;;;;;;;4.03;2.10;;;15.90;99.90;;;;;;9180623;19;20010;-76
2022/07/10 13:38:23;;;;;;;2.83;1.80;;;15.70;99.90;;;;;;9180573;19;20040;-76
2022/07/10 13:41:27;;;;;;;8.60;3.92;;;15.90;99.90;;;;;;9180047;19;20013;-76
2022/07/10 13:44:31;;;;;;;5.30;2.60;;;15.70;99.90;;;;;;9180114;19;20025;-76
2022/07/10 13:47:39;;;;;;;3.88;1.67;;;15.90;99.90;;;;;;9180206;19;20443;-77
2022/07/10 13:50:46;;;;;;;6.35;2.78;;;15.70;99.90;;;;;;9179584;19;20014;-77
2022/07/10 13:53:50;;;;;;;6.10;1.88;;;15.70;99.90;;;;;;9179596;19;20013;-76
2022/07/10 13:56:54;;;;;;;3.80;1.80;;;15.60;99.90;;;;;;9179790;19;20341;-76
2022/07/10 13:59:58;;;;;;;3.60;1.70;;;15.70;99.90;;;;;;9178380;19;20014;-76
2022/07/10 14:03:05;;;;;;;5.07;2.25;;;15.50;99.90;;;;;;9179829;19;20081;-77
2022/07/10 14:06:09;;;;;;;8.57;3.30;;;15.40;99.90;;;;;;9179378;19;20047;-76
2022/07/10 14:09:13;;;;;;;4.70;1.88;;;15.30;99.90;;;;;;9179444;19;20543;-77
2022/07/10 14:12:17;;;;;;;5.40;2.20;;;15.40;99.90;;;;;;9178999;19;20018;-76
2022/07/10 14:15:21;;;;;;;6.00;2.20;;;15.30;99.90;;;;;;9179077;19;20066;-76
2022/07/10 14:18:37;;;;;;;4.90;1.98;;;15.30;99.90;;;;;;9177978;19;20366;-76
2022/07/10 14:21:43;;;;;;;4.40;1.58;;;15.40;99.90;;;;;;9178338;19;20371;-76
2022/07/10 14:24:47;;;;;;;8.77;2.63;;;15.40;99.90;;;;;;9179836;19;20017;-77
2022/07/10 14:27:51;;;;;;;7.03;2.00;;;15.30;99.90;;;;;;9176197;19;20349;-77
2022/07/10 14:30:57;;;;;;;7.57;3.10;;;15.20;99.90;;;;;;9183593;19;20010;-77
2022/07/10 14:34:04;;;;;;;9.13;2.30;;;15.20;99.90;;;;;;9179597;19;20018;-77
2022/07/10 14:37:08;;;;;;;4.43;1.90;;;14.50;99.90;;;;;;9178508;19;20018;-77
2022/07/10 14:40:13;;;;;;;5.35;1.90;;;15.30;99.90;;;;;;9175717;19;20011;-77
2022/07/10 14:43:17;;;;;;;6.05;2.30;;;15.50;99.90;;;;;;9177599;19;20066;-77
2022/07/10 14:46:21;;;;;;;6.10;2.22;;;15.50;99.90;;;;;;9177860;19;20006;-77
2022/07/10 14:49:28;;;;;;;7.40;2.65;;;15.80;99.90;;;;;;9177076;19;20084;-77
2022/07/10 14:52:33;;;;;;;8.48;3.20;;;15.60;99.90;;;;;;9176329;19;20205;-77
2022/07/10 14:55:37;;;;;;;7.30;2.80;;;15.50;99.90;;;;;;9177159;19;20010;-77
2022/07/10 14:58:41;;;;;;;6.43;2.85;;;15.60;99.90;;;;;;9176658;19;20035;-77
2022/07/10 15:01:45;;;;;;;7.07;2.83;;;15.60;99.90;;;;;;9177825;19;20010;-77
2022/07/10 15:04:52;;;;;;;10.25;4.55;;;16.40;99.90;;;;;;9177236;19;20018;-77
2022/07/10 15:07:56;;;;;;;7.60;3.50;;;15.30;99.90;;;;;;9178007;19;20074;-77
2022/07/10 15:11:00;;;;;;;8.23;3.35;;;15.40;99.90;;;;;;9177156;19;20007;-77
2022/07/10 15:14:04;;;;;;;14.00;4.82;;;15.20;99.90;;;;;;9177242;19;20019;-76
2022/07/10 15:17:08;;;;;;;11.55;3.92;;;15.40;99.90;;;;;;9176728;19;20014;-77
2022/07/10 15:20:16;;;;;;;5.45;2.58;;;15.70;99.90;;;;;;9175544;19;20355;-77
2022/07/10 15:23:20;;;;;;;5.55;2.20;;;15.40;99.90;;;;;;9177551;19;20494;-76
2022/07/10 15:26:24;;;;;;;5.25;2.58;;;15.60;99.90;;;;;;9175714;19;20010;-76
2022/07/10 15:29:28;;;;;;;5.28;2.35;;;15.70;99.90;;;;;;9179006;19;20014;-76
2022/07/10 15:32:32;;;;;;;4.55;2.13;;;15.90;99.90;;;;;;9176223;19;20006;-76
2022/07/10 15:35:38;;;;;;;5.15;2.08;;;16.10;99.90;;;;;;9176462;19;20013;-76
2022/07/10 15:38:42;;;;;;;6.18;2.50;;;16.00;99.90;;;;;;9176178;19;20483;-77
2022/07/10 15:41:46;;;;;;;7.97;2.65;;;16.20;99.90;;;;;;9176937;19;20021;-76
2022/07/10 15:44:50;;;;;;;8.23;2.47;;;16.20;99.90;;;;;;9176700;19;20014;-76
2022/07/10 15:47:56;;;;;;;7.10;2.38;;;16.40;99.90;;;;;;9175738;19;20010;-76
2022/07/10 15:51:03;;;;;;;9.18;2.78;;;16.40;99.90;;;;;;9175380;19;20015;-76
2022/07/10 15:54:07;;;;;;;10.15;4.57;;;16.50;99.90;;;;;;9183584;19;20431;-76
2022/07/10 15:57:11;;;;;;;5.35;2.42;;;16.50;99.90;;;;;;9185878;19;20011;-76
2022/07/10 16:00:15;;;;;;;5.70;2.30;;;16.40;99.90;;;;;;9185983;19;20475;-76
2022/07/10 16:03:19;;;;;;;9.80;2.83;;;16.20;99.90;;;;;;9191084;19;20515;-76
2022/07/10 16:06:28;;;;;;;9.18;2.65;;;16.10;99.90;;;;;;9191446;19;20074;-76
2022/07/10 16:09:32;;;;;;;4.65;2.10;;;16.10;99.90;;;;;;9192492;19;20045;-76
2022/07/10 16:12:36;;;;;;;8.10;2.38;;;16.30;99.90;;;;;;9190578;19;20011;-76
2022/07/10 16:15:40;;;;;;;6.03;2.20;;;16.20;99.90;;;;;;9184942;19;20074;-77
2022/07/10 16:18:44;;;;;;;6.80;2.28;;;16.30;99.90;;;;;;9183340;19;20010;-76
2022/07/10 16:21:50;;;;;;;6.47;2.17;;;16.40;99.90;;;;;;9183771;19;20017;-76